createdAt,value
2018-03-27T00:00:44.568Z,24.87
2018-03-27T00:01:43.869Z,24.87
2018-03-27T00:02:43.864Z,24.80
2018-03-27T00:03:43.821Z,24.90
2018-03-27T00:04:43.797Z,24.84
2018-03-27T00:05:43.777Z,24.81
2018-03-27T00:06:43.750Z,24.73
2018-03-27T00:07:43.730Z,24.84
2018-03-27T00:08:43.694Z,24.85
2018-03-27T00:09:43.678Z,24.87
2018-03-27T00:10:43.653Z,24.77
2018-03-27T00:11:44.578Z,24.76
2018-03-27T00:12:43.929Z,24.81
2018-03-27T00:13:43.587Z,24.80
2018-03-27T00:14:43.554Z,24.78
2018-03-27T00:15:43.528Z,24.85
2018-03-27T00:16:43.502Z,24.83
2018-03-27T00:17:43.476Z,24.87
2018-03-27T00:18:43.456Z,24.77
2018-03-27T00:19:43.434Z,24.81
2018-03-27T00:20:43.417Z,24.77
2018-03-27T00:21:43.384Z,24.81
2018-03-27T00:22:44.069Z,24.87
2018-03-27T00:23:43.329Z,24.80
2018-03-27T00:24:43.343Z,24.76
2018-03-27T00:25:43.316Z,24.84
2018-03-27T00:26:43.262Z,24.81
2018-03-27T00:27:43.227Z,24.78
2018-03-27T00:28:43.211Z,24.76
2018-03-27T00:29:43.191Z,24.83
2018-03-27T00:30:43.158Z,24.80
2018-03-27T00:31:43.132Z,24.76
2018-03-27T00:32:43.114Z,24.77
2018-03-27T00:33:43.092Z,24.76
2018-03-27T00:34:43.063Z,24.78
2018-03-27T00:35:43.054Z,24.78
2018-03-27T00:36:43.010Z,24.76
2018-03-27T00:37:42.995Z,24.71
2018-03-27T00:38:42.965Z,24.77
2018-03-27T00:39:42.941Z,24.73
2018-03-27T00:40:42.915Z,24.77
2018-03-27T00:41:42.900Z,24.76
2018-03-27T00:42:42.878Z,24.67
2018-03-27T00:43:42.874Z,24.73
2018-03-27T00:44:42.825Z,24.76
2018-03-27T00:45:42.798Z,24.80
2018-03-27T00:46:42.772Z,24.77
2018-03-27T00:47:42.743Z,24.76
2018-03-27T00:48:42.738Z,24.71
2018-03-27T00:49:42.737Z,24.76
2018-03-27T00:50:42.679Z,24.64
2018-03-27T00:51:42.647Z,24.73
2018-03-27T00:52:42.643Z,24.76
2018-03-27T00:53:42.617Z,24.58
2018-03-27T00:54:42.571Z,24.67
2018-03-27T00:55:43.097Z,24.71
2018-03-27T00:56:42.525Z,24.64
2018-03-27T00:57:42.498Z,24.62
2018-03-27T00:58:42.480Z,24.64
2018-03-27T00:59:42.468Z,24.64
2018-03-27T01:00:42.424Z,24.64
2018-03-27T01:01:43.092Z,24.71
2018-03-27T01:02:42.381Z,24.65
2018-03-27T01:03:42.352Z,24.69
2018-03-27T01:04:42.325Z,24.64
2018-03-27T01:05:42.300Z,24.62
2018-03-27T01:06:42.276Z,24.68
2018-03-27T01:07:42.246Z,24.62
2018-03-27T01:08:42.250Z,24.67
2018-03-27T01:09:42.203Z,24.61
2018-03-27T01:10:42.182Z,24.68
2018-03-27T01:11:42.152Z,24.68
2018-03-27T01:12:43.122Z,24.67
2018-03-27T01:13:42.107Z,24.68
2018-03-27T01:14:42.083Z,24.64
2018-03-27T01:15:42.057Z,24.60
2018-03-27T01:16:42.046Z,24.62
2018-03-27T01:17:42.591Z,24.65
2018-03-27T01:18:41.983Z,24.65
2018-03-27T01:19:41.958Z,24.67
2018-03-27T01:20:41.965Z,24.53
2018-03-27T01:21:41.922Z,24.61
2018-03-27T01:22:41.921Z,24.67
2018-03-27T01:23:41.864Z,24.55
2018-03-27T01:24:41.826Z,24.61
2018-03-27T01:25:41.807Z,24.57
2018-03-27T01:26:41.839Z,24.64
2018-03-27T01:27:41.757Z,24.50
2018-03-27T01:28:41.735Z,24.60
2018-03-27T01:29:41.707Z,24.50
2018-03-27T01:30:41.756Z,24.61
2018-03-27T01:31:41.659Z,24.61
2018-03-27T01:32:41.642Z,24.57
2018-03-27T01:33:41.646Z,24.55
2018-03-27T01:34:41.589Z,24.52
2018-03-27T01:35:41.562Z,24.53
2018-03-27T01:36:41.549Z,24.52
2018-03-27T01:37:41.526Z,24.57
2018-03-27T01:38:41.498Z,24.52
2018-03-27T01:39:41.477Z,24.52
2018-03-27T01:40:41.437Z,24.53
2018-03-27T01:41:41.442Z,24.52
2018-03-27T01:42:41.388Z,24.55
2018-03-27T01:43:41.368Z,24.57
2018-03-27T01:44:41.352Z,24.55
2018-03-27T01:45:41.318Z,24.52
2018-03-27T01:46:41.288Z,24.55
2018-03-27T01:47:41.261Z,24.53
2018-03-27T01:48:41.250Z,24.50
2018-03-27T01:49:43.097Z,24.52
2018-03-27T01:50:41.200Z,24.49
2018-03-27T01:51:41.176Z,24.58
2018-03-27T01:52:41.167Z,24.50
2018-03-27T01:53:41.148Z,24.49
2018-03-27T01:54:41.104Z,24.50
2018-03-27T01:55:41.092Z,24.49
2018-03-27T01:56:41.042Z,24.47
2018-03-27T01:57:41.040Z,24.52
2018-03-27T01:58:40.994Z,24.46
2018-03-27T01:59:40.971Z,24.50
2018-03-27T02:00:40.948Z,24.47
2018-03-27T02:01:40.938Z,24.53
2018-03-27T02:02:40.894Z,24.46
2018-03-27T02:03:40.864Z,24.45
2018-03-27T02:04:40.846Z,24.43
2018-03-27T02:05:40.818Z,24.52
2018-03-27T02:06:40.794Z,24.45
2018-03-27T02:07:40.770Z,24.47
2018-03-27T02:08:40.757Z,24.43
2018-03-27T02:09:40.729Z,24.46
2018-03-27T02:10:40.705Z,24.46
2018-03-27T02:11:41.604Z,24.46
2018-03-27T02:12:40.654Z,24.42
2018-03-27T02:13:40.640Z,24.46
2018-03-27T02:14:40.604Z,24.37
2018-03-27T02:15:40.586Z,24.43
2018-03-27T02:16:40.557Z,24.42
2018-03-27T02:17:40.531Z,24.39
2018-03-27T02:18:40.510Z,24.39
2018-03-27T02:19:40.512Z,24.47
2018-03-27T02:20:40.459Z,24.39
2018-03-27T02:21:40.457Z,24.35
2018-03-27T02:22:40.409Z,24.39
2018-03-27T02:23:40.375Z,24.37
2018-03-27T02:24:40.355Z,24.39
2018-03-27T02:25:40.328Z,24.40
2018-03-27T02:26:40.301Z,24.40
2018-03-27T02:27:40.309Z,24.39
2018-03-27T02:28:40.254Z,24.40
2018-03-27T02:29:40.231Z,24.42
2018-03-27T02:30:40.219Z,24.37
2018-03-27T02:31:40.202Z,24.39
2018-03-27T02:32:40.157Z,24.32
2018-03-27T02:33:40.142Z,24.42
2018-03-27T02:34:40.103Z,24.34
2018-03-27T02:35:40.097Z,24.42
2018-03-27T02:36:40.062Z,24.39
2018-03-27T02:37:40.029Z,24.37
2018-03-27T02:38:40.021Z,24.37
2018-03-27T02:39:39.994Z,24.42
2018-03-27T02:40:39.974Z,24.37
2018-03-27T02:41:39.940Z,24.37
2018-03-27T02:42:39.906Z,24.37
2018-03-27T02:43:39.891Z,24.43
2018-03-27T02:44:39.861Z,24.45
2018-03-27T02:45:39.863Z,24.42
2018-03-27T02:46:39.804Z,24.39
2018-03-27T02:47:39.784Z,24.43
2018-03-27T02:48:39.763Z,24.43
2018-03-27T02:49:39.745Z,24.40
2018-03-27T02:50:39.708Z,24.42
2018-03-27T02:51:39.691Z,24.40
2018-03-27T02:52:39.665Z,24.42
2018-03-27T02:53:39.637Z,24.32
2018-03-27T02:54:39.687Z,24.31
2018-03-27T02:55:40.134Z,24.40
2018-03-27T02:56:39.582Z,24.32
2018-03-27T02:57:39.553Z,24.32
2018-03-27T02:58:39.517Z,24.40
2018-03-27T02:59:39.487Z,24.27
2018-03-27T03:00:39.465Z,24.40
2018-03-27T03:01:39.451Z,24.27
2018-03-27T03:02:39.417Z,24.40
2018-03-27T03:03:39.420Z,24.34
2018-03-27T03:04:39.360Z,24.34
2018-03-27T03:05:39.342Z,24.34
2018-03-27T03:06:39.324Z,24.39
2018-03-27T03:07:39.297Z,24.34
2018-03-27T03:08:39.277Z,24.39
2018-03-27T03:09:39.249Z,24.27
2018-03-27T03:10:39.232Z,24.27
2018-03-27T03:11:39.200Z,24.24
2018-03-27T03:12:39.175Z,24.22
2018-03-27T03:13:39.152Z,24.25
2018-03-27T03:14:39.120Z,24.28
2018-03-27T03:15:39.112Z,24.24
2018-03-27T03:16:39.072Z,24.25
2018-03-27T03:17:39.045Z,24.30
2018-03-27T03:18:39.021Z,24.22
2018-03-27T03:19:38.990Z,24.24
2018-03-27T03:20:38.968Z,24.22
2018-03-27T03:21:38.946Z,24.35
2018-03-27T03:22:38.936Z,24.22
2018-03-27T03:23:38.892Z,24.30
2018-03-27T03:24:38.871Z,24.34
2018-03-27T03:25:38.845Z,24.27
2018-03-27T03:26:38.818Z,24.30
2018-03-27T03:27:38.816Z,24.22
2018-03-27T03:28:38.799Z,24.20
2018-03-27T03:29:38.745Z,24.22
2018-03-27T03:30:38.731Z,24.25
2018-03-27T03:31:38.701Z,24.31
2018-03-27T03:32:38.672Z,24.20
2018-03-27T03:33:38.644Z,24.24
2018-03-27T03:34:38.620Z,24.18
2018-03-27T03:35:38.591Z,24.21
2018-03-27T03:36:38.572Z,24.22
2018-03-27T03:37:38.542Z,24.20
2018-03-27T03:38:38.526Z,24.22
2018-03-27T03:39:38.505Z,24.24
2018-03-27T03:40:38.467Z,24.22
2018-03-27T03:41:38.466Z,24.22
2018-03-27T03:42:38.424Z,24.25
2018-03-27T03:43:38.395Z,24.22
2018-03-27T03:44:38.389Z,24.22
2018-03-27T03:45:38.340Z,24.20
2018-03-27T03:46:38.325Z,24.24
2018-03-27T03:47:38.299Z,24.15
2018-03-27T03:48:38.271Z,24.21
2018-03-27T03:49:38.253Z,24.05
2018-03-27T03:50:39.126Z,24.21
2018-03-27T03:51:38.201Z,24.27
2018-03-27T03:52:38.175Z,24.20
2018-03-27T03:53:38.144Z,24.10
2018-03-27T03:54:38.124Z,24.12
2018-03-27T03:55:38.116Z,24.21
2018-03-27T03:56:38.071Z,24.22
2018-03-27T03:57:38.048Z,24.20
2018-03-27T03:58:38.026Z,24.18
2018-03-27T03:59:38.003Z,24.18
2018-03-27T04:00:37.982Z,24.20
2018-03-27T04:01:37.955Z,24.13
2018-03-27T04:02:37.928Z,24.12
2018-03-27T04:03:37.904Z,24.13
2018-03-27T04:04:37.884Z,24.18
2018-03-27T04:05:37.862Z,24.12
2018-03-27T04:06:37.827Z,24.13
2018-03-27T04:07:37.806Z,24.15
2018-03-27T04:08:37.780Z,24.10
2018-03-27T04:09:37.747Z,24.10
2018-03-27T04:10:37.728Z,24.06
2018-03-27T04:11:37.716Z,24.10
2018-03-27T04:12:37.678Z,24.06
2018-03-27T04:13:37.653Z,24.13
2018-03-27T04:14:37.628Z,24.15
2018-03-27T04:15:37.606Z,24.12
2018-03-27T04:16:37.587Z,24.09
2018-03-27T04:17:37.558Z,24.12
2018-03-27T04:18:37.536Z,24.08
2018-03-27T04:19:37.510Z,24.13
2018-03-27T04:20:37.486Z,24.12
2018-03-27T04:21:37.516Z,24.16
2018-03-27T04:22:38.152Z,24.08
2018-03-27T04:23:37.404Z,24.10
2018-03-27T04:24:37.378Z,24.12
2018-03-27T04:25:37.355Z,24.09
2018-03-27T04:26:37.330Z,24.03
2018-03-27T04:27:37.305Z,24.08
2018-03-27T04:28:37.278Z,24.06
2018-03-27T04:29:37.262Z,24.06
2018-03-27T04:30:37.236Z,24.08
2018-03-27T04:31:37.206Z,23.93
2018-03-27T04:32:37.186Z,24.08
2018-03-27T04:33:37.164Z,24.05
2018-03-27T04:34:37.130Z,23.98
2018-03-27T04:35:37.104Z,24.08
2018-03-27T04:36:37.080Z,24.05
2018-03-27T04:37:37.063Z,23.94
2018-03-27T04:39:37.006Z,23.94
2018-03-27T04:40:36.982Z,24.02
2018-03-27T04:41:36.959Z,24.02
2018-03-27T04:42:36.936Z,23.97
2018-03-27T04:43:36.906Z,23.97
2018-03-27T04:44:36.889Z,23.98
2018-03-27T04:45:36.862Z,24.00
2018-03-27T04:46:36.831Z,23.98
2018-03-27T04:47:36.816Z,24.02
2018-03-27T04:48:36.787Z,24.02
2018-03-27T04:49:36.768Z,23.97
2018-03-27T04:50:36.742Z,24.00
2018-03-27T04:51:36.717Z,24.02
2018-03-27T04:52:36.687Z,23.90
2018-03-27T04:53:36.664Z,24.00
2018-03-27T04:54:36.634Z,23.95
2018-03-27T04:55:36.612Z,23.90
2018-03-27T04:56:36.616Z,23.95
2018-03-27T04:57:36.562Z,23.94
2018-03-27T04:58:36.542Z,23.95
2018-03-27T04:59:36.516Z,23.94
2018-03-27T05:00:36.484Z,23.98
2018-03-27T05:01:36.465Z,23.88
2018-03-27T05:02:36.437Z,23.90
2018-03-27T05:03:36.412Z,24.02
2018-03-27T05:04:36.381Z,23.91
2018-03-27T05:05:36.360Z,23.84
2018-03-27T05:06:37.141Z,23.90
2018-03-27T05:07:36.318Z,23.87
2018-03-27T05:08:36.284Z,23.93
2018-03-27T05:09:36.262Z,23.88
2018-03-27T05:10:36.243Z,23.94
2018-03-27T05:11:36.217Z,23.88
2018-03-27T05:12:36.184Z,23.88
2018-03-27T05:13:36.163Z,23.91
2018-03-27T05:14:36.132Z,23.88
2018-03-27T05:15:36.112Z,23.84
2018-03-27T05:16:36.086Z,23.84
2018-03-27T05:17:36.062Z,23.84
2018-03-27T05:18:36.041Z,23.84
2018-03-27T05:19:36.018Z,23.84
2018-03-27T05:20:35.982Z,23.94
2018-03-27T05:21:35.960Z,23.78
2018-03-27T05:22:35.936Z,23.84
2018-03-27T05:23:35.923Z,23.84
2018-03-27T05:24:35.890Z,23.80
2018-03-27T05:25:35.864Z,23.83
2018-03-27T05:26:35.842Z,23.80
2018-03-27T05:27:35.812Z,23.79
2018-03-27T05:28:36.654Z,23.73
2018-03-27T05:29:35.765Z,23.88
2018-03-27T05:30:35.734Z,23.76
2018-03-27T05:31:35.717Z,23.79
2018-03-27T05:32:35.684Z,23.79
2018-03-27T05:33:35.664Z,23.88
2018-03-27T05:34:35.634Z,23.76
2018-03-27T05:35:35.617Z,23.79
2018-03-27T05:36:35.587Z,23.84
2018-03-27T05:37:35.568Z,23.76
2018-03-27T05:38:35.544Z,23.78
2018-03-27T05:39:35.512Z,23.78
2018-03-27T05:40:35.483Z,23.80
2018-03-27T05:41:35.460Z,23.85
2018-03-27T05:42:35.446Z,23.85
2018-03-27T05:43:35.418Z,23.76
2018-03-27T05:44:35.386Z,23.78
2018-03-27T05:45:35.370Z,23.87
2018-03-27T05:46:35.340Z,23.83
2018-03-27T05:47:35.313Z,23.80
2018-03-27T05:48:35.287Z,23.80
2018-03-27T05:49:35.266Z,23.83
2018-03-27T05:50:35.238Z,23.79
2018-03-27T05:51:35.208Z,23.79
2018-03-27T05:52:35.184Z,23.75
2018-03-27T05:53:35.160Z,23.75
2018-03-27T05:54:35.142Z,23.79
2018-03-27T05:55:35.114Z,23.83
2018-03-27T05:56:35.085Z,23.70
2018-03-27T05:57:35.063Z,23.73
2018-03-27T05:58:35.043Z,23.83
2018-03-27T05:59:35.010Z,23.84
2018-03-27T06:00:34.986Z,23.73
2018-03-27T06:01:34.962Z,23.79
2018-03-27T06:02:34.937Z,23.68
2018-03-27T06:03:34.908Z,23.66
2018-03-27T06:04:34.892Z,23.73
2018-03-27T06:05:34.860Z,23.72
2018-03-27T06:06:34.840Z,23.73
2018-03-27T06:07:34.808Z,23.79
2018-03-27T06:08:34.783Z,23.70
2018-03-27T06:09:34.764Z,23.70
2018-03-27T06:10:34.733Z,23.70
2018-03-27T06:11:34.708Z,23.69
2018-03-27T06:12:36.660Z,23.68
2018-03-27T06:13:34.663Z,23.60
2018-03-27T06:14:34.639Z,23.78
2018-03-27T06:15:34.611Z,23.68
2018-03-27T06:16:34.594Z,23.63
2018-03-27T06:17:34.564Z,23.63
2018-03-27T06:18:34.540Z,23.58
2018-03-27T06:19:34.512Z,23.66
2018-03-27T06:20:34.486Z,23.68
2018-03-27T06:21:34.464Z,23.72
2018-03-27T06:22:34.434Z,23.57
2018-03-27T06:23:34.410Z,23.69
2018-03-27T06:24:34.386Z,23.63
2018-03-27T06:25:34.364Z,23.63
2018-03-27T06:26:34.338Z,23.70
2018-03-27T06:27:34.316Z,23.72
2018-03-27T06:28:34.302Z,23.66
2018-03-27T06:29:34.258Z,23.68
2018-03-27T06:30:34.238Z,23.70
2018-03-27T06:31:34.210Z,23.68
2018-03-27T06:32:34.186Z,23.60
2018-03-27T06:33:34.158Z,23.66
2018-03-27T06:34:34.133Z,23.66
2018-03-27T06:35:34.110Z,23.66
2018-03-27T06:36:34.086Z,23.60
2018-03-27T06:37:34.061Z,23.54
2018-03-27T06:38:34.036Z,23.63
2018-03-27T06:39:34.008Z,23.57
2018-03-27T06:40:33.982Z,23.61
2018-03-27T06:41:33.958Z,23.60
2018-03-27T06:42:33.928Z,23.55
2018-03-27T06:43:33.911Z,23.53
2018-03-27T06:44:34.668Z,23.51
2018-03-27T06:45:33.858Z,23.57
2018-03-27T06:46:33.833Z,23.53
2018-03-27T06:47:33.865Z,23.61
2018-03-27T06:48:33.778Z,23.51
2018-03-27T06:49:33.765Z,23.48
2018-03-27T06:50:33.746Z,23.51
2018-03-27T06:51:33.703Z,23.47
2018-03-27T06:52:33.681Z,23.48
2018-03-27T06:53:33.677Z,23.53
2018-03-27T06:54:33.630Z,23.47
2018-03-27T06:55:33.612Z,23.55
2018-03-27T06:56:33.585Z,23.53
2018-03-27T06:57:33.556Z,23.47
2018-03-27T06:58:33.537Z,23.51
2018-03-27T06:59:33.502Z,23.57
2018-03-27T07:00:33.485Z,23.43
2018-03-27T07:01:33.454Z,23.54
2018-03-27T07:02:33.431Z,23.50
2018-03-27T07:03:33.485Z,23.51
2018-03-27T07:04:33.379Z,23.57
2018-03-27T07:05:33.437Z,23.47
2018-03-27T07:06:33.375Z,23.57
2018-03-27T07:07:33.313Z,23.51
2018-03-27T07:08:33.291Z,23.51
2018-03-27T07:09:33.274Z,23.54
2018-03-27T07:10:33.287Z,23.47
2018-03-27T07:11:33.200Z,23.48
2018-03-27T07:12:33.192Z,23.50
2018-03-27T07:13:33.170Z,23.46
2018-03-27T07:14:33.127Z,23.50
2018-03-27T07:15:33.104Z,23.46
2018-03-27T07:16:33.075Z,23.47
2018-03-27T07:17:33.060Z,23.54
2018-03-27T07:18:33.044Z,23.43
2018-03-27T07:19:33.003Z,23.43
2018-03-27T07:20:32.981Z,23.47
2018-03-27T07:21:32.956Z,23.46
2018-03-27T07:22:32.928Z,23.48
2018-03-27T07:23:32.899Z,23.40
2018-03-27T07:24:32.876Z,23.46
2018-03-27T07:25:32.853Z,23.38
2018-03-27T07:26:32.831Z,23.38
2018-03-27T07:27:32.796Z,23.40
2018-03-27T07:28:32.783Z,23.43
2018-03-27T07:29:32.751Z,23.40
2018-03-27T07:30:32.724Z,23.39
2018-03-27T07:31:32.699Z,23.36
2018-03-27T07:32:32.761Z,23.39
2018-03-27T07:33:32.664Z,23.38
2018-03-27T07:34:32.625Z,23.36
2018-03-27T07:35:32.605Z,23.33
2018-03-27T07:36:32.579Z,23.38
2018-03-27T07:37:32.544Z,23.35
2018-03-27T07:38:32.527Z,23.35
2018-03-27T07:39:32.509Z,23.31
2018-03-27T07:40:32.524Z,23.38
2018-03-27T07:41:32.449Z,23.31
2018-03-27T07:42:32.425Z,23.36
2018-03-27T07:43:32.420Z,23.33
2018-03-27T07:44:32.369Z,23.28
2018-03-27T07:45:32.347Z,23.25
2018-03-27T07:46:32.322Z,23.31
2018-03-27T07:47:32.295Z,23.31
2018-03-27T07:48:32.274Z,23.31
2018-03-27T07:49:32.280Z,23.38
2018-03-27T07:50:33.188Z,23.27
2018-03-27T07:51:32.190Z,23.31
2018-03-27T07:52:32.174Z,23.28
2018-03-27T07:53:32.145Z,23.32
2018-03-27T07:54:32.121Z,23.35
2018-03-27T07:55:32.094Z,23.25
2018-03-27T07:56:32.065Z,23.33
2018-03-27T07:57:32.046Z,23.25
2018-03-27T07:58:32.026Z,23.31
2018-03-27T07:59:31.995Z,23.31
2018-03-27T08:00:31.969Z,23.25
2018-03-27T08:01:34.691Z,23.27
2018-03-27T08:02:31.921Z,23.27
2018-03-27T08:03:31.900Z,23.31
2018-03-27T08:04:31.869Z,23.22
2018-03-27T08:05:31.839Z,23.28
2018-03-27T08:06:31.827Z,23.31
2018-03-27T08:07:31.794Z,23.27
2018-03-27T08:08:31.767Z,23.25
2018-03-27T08:09:31.741Z,23.32
2018-03-27T08:10:31.719Z,23.33
2018-03-27T08:11:31.685Z,23.25
2018-03-27T08:12:31.675Z,23.23
2018-03-27T08:13:31.637Z,23.22
2018-03-27T08:14:31.623Z,23.16
2018-03-27T08:15:31.588Z,23.20
2018-03-27T08:16:31.564Z,23.19
2018-03-27T08:17:31.537Z,23.31
2018-03-27T08:18:31.517Z,23.28
2018-03-27T08:19:31.486Z,23.19
2018-03-27T08:20:31.470Z,23.27
2018-03-27T08:21:31.440Z,23.22
2018-03-27T08:22:31.420Z,23.19
2018-03-27T08:23:31.396Z,23.16
2018-03-27T08:24:31.370Z,23.16
2018-03-27T08:25:31.331Z,23.13
2018-03-27T08:26:31.316Z,23.16
2018-03-27T08:27:31.333Z,23.16
2018-03-27T08:28:31.263Z,23.17
2018-03-27T08:29:31.242Z,23.10
2018-03-27T08:30:31.211Z,23.16
2018-03-27T08:31:37.724Z,23.10
2018-03-27T08:32:31.159Z,23.09
2018-03-27T08:33:31.134Z,23.16
2018-03-27T08:34:31.113Z,23.09
2018-03-27T08:35:31.083Z,23.10
2018-03-27T08:36:31.083Z,23.05
2018-03-27T08:37:31.030Z,23.04
2018-03-27T08:38:31.011Z,23.09
2018-03-27T08:39:30.981Z,23.12
2018-03-27T08:40:30.958Z,23.05
2018-03-27T08:41:30.936Z,23.10
2018-03-27T08:42:30.911Z,23.02
2018-03-27T08:43:30.877Z,23.04
2018-03-27T08:44:30.857Z,23.02
2018-03-27T08:45:30.832Z,23.02
2018-03-27T08:46:30.806Z,23.04
2018-03-27T08:47:30.776Z,23.05
2018-03-27T08:48:30.749Z,23.04
2018-03-27T08:49:30.728Z,23.07
2018-03-27T08:50:30.708Z,23.07
2018-03-27T08:51:30.679Z,23.05
2018-03-27T08:52:30.655Z,23.09
2018-03-27T08:53:30.630Z,23.07
2018-03-27T08:54:30.602Z,23.07
2018-03-27T08:55:30.575Z,23.09
2018-03-27T08:56:30.550Z,23.10
2018-03-27T08:57:30.524Z,23.05
2018-03-27T08:58:30.498Z,23.05
2018-03-27T08:59:30.480Z,23.05
2018-03-27T09:00:30.447Z,23.10
2018-03-27T09:01:30.452Z,23.09
2018-03-27T09:02:30.399Z,23.12
2018-03-27T09:03:30.371Z,23.04
2018-03-27T09:04:30.356Z,23.05
2018-03-27T09:05:30.321Z,23.07
2018-03-27T09:06:31.207Z,23.07
2018-03-27T09:07:30.279Z,23.00
2018-03-27T09:08:30.246Z,22.97
2018-03-27T09:09:30.223Z,23.04
2018-03-27T09:10:30.195Z,23.04
2018-03-27T09:11:30.171Z,22.95
2018-03-27T09:12:30.145Z,22.97
2018-03-27T09:13:30.131Z,22.98
2018-03-27T09:14:30.095Z,22.88
2018-03-27T09:15:30.075Z,22.92
2018-03-27T09:16:30.049Z,22.92
2018-03-27T09:17:30.021Z,22.88
2018-03-27T09:18:30.009Z,22.94
2018-03-27T09:19:29.974Z,22.88
2018-03-27T09:20:29.941Z,22.98
2018-03-27T09:21:29.921Z,22.92
2018-03-27T09:22:29.923Z,22.86
2018-03-27T09:23:29.869Z,22.91
2018-03-27T09:24:29.849Z,22.94
2018-03-27T09:25:29.817Z,23.00
2018-03-27T09:26:29.796Z,22.97
2018-03-27T09:27:29.761Z,22.92
2018-03-27T09:28:29.741Z,22.90
2018-03-27T09:29:29.713Z,22.86
2018-03-27T09:30:29.691Z,22.88
2018-03-27T09:31:29.665Z,22.88
2018-03-27T09:32:29.646Z,22.94
2018-03-27T09:33:29.611Z,22.90
2018-03-27T09:34:29.585Z,22.86
2018-03-27T09:35:29.580Z,22.85
2018-03-27T09:36:29.533Z,22.86
2018-03-27T09:37:29.507Z,22.85
2018-03-27T09:38:29.484Z,22.86
2018-03-27T09:39:29.478Z,22.92
2018-03-27T09:40:29.429Z,22.91
2018-03-27T09:41:29.405Z,22.91
2018-03-27T09:42:29.391Z,22.92
2018-03-27T09:43:29.355Z,22.86
2018-03-27T09:44:29.351Z,22.88
2018-03-27T09:45:29.344Z,22.88
2018-03-27T09:46:29.280Z,22.86
2018-03-27T09:47:29.258Z,22.85
2018-03-27T09:48:29.239Z,22.86
2018-03-27T09:49:29.207Z,22.83
2018-03-27T09:50:29.184Z,22.85
2018-03-27T09:51:29.193Z,22.86
2018-03-27T09:52:29.125Z,22.88
2018-03-27T09:53:29.103Z,22.83
2018-03-27T09:54:29.085Z,22.82
2018-03-27T09:55:29.050Z,22.80
2018-03-27T09:56:29.025Z,22.79
2018-03-27T09:57:28.999Z,22.76
2018-03-27T09:58:28.995Z,22.85
2018-03-27T09:59:28.954Z,22.83
2018-03-27T10:00:28.918Z,22.76
2018-03-27T10:01:29.721Z,22.75
2018-03-27T10:02:28.875Z,22.77
2018-03-27T10:03:28.853Z,22.80
2018-03-27T10:04:28.820Z,22.75
2018-03-27T10:05:28.796Z,22.77
2018-03-27T10:06:28.773Z,22.80
2018-03-27T10:07:28.745Z,22.76
2018-03-27T10:08:28.721Z,22.76
2018-03-27T10:09:28.710Z,22.76
2018-03-27T10:10:28.671Z,22.80
2018-03-27T10:11:28.665Z,22.77
2018-03-27T10:12:28.625Z,22.77
2018-03-27T10:13:28.596Z,22.72
2018-03-27T10:14:28.567Z,22.75
2018-03-27T10:15:28.545Z,22.70
2018-03-27T10:16:28.521Z,22.79
2018-03-27T10:17:28.493Z,22.72
2018-03-27T10:18:28.479Z,22.79
2018-03-27T10:19:28.439Z,22.76
2018-03-27T10:20:28.417Z,22.73
2018-03-27T10:21:28.391Z,22.79
2018-03-27T10:22:28.365Z,22.72
2018-03-27T10:23:29.225Z,22.72
2018-03-27T10:24:28.315Z,22.68
2018-03-27T10:25:28.287Z,22.73
2018-03-27T10:26:28.259Z,22.73
2018-03-27T10:27:28.238Z,22.68
2018-03-27T10:28:28.215Z,22.72
2018-03-27T10:29:28.184Z,22.70
2018-03-27T10:30:28.161Z,22.67
2018-03-27T10:31:28.130Z,22.67
2018-03-27T10:32:28.100Z,22.65
2018-03-27T10:33:28.964Z,22.64
2018-03-27T10:34:28.072Z,22.67
2018-03-27T10:35:28.039Z,22.72
2018-03-27T10:36:30.732Z,22.60
2018-03-27T10:37:28.046Z,22.65
2018-03-27T10:38:27.980Z,22.68
2018-03-27T10:39:27.941Z,22.62
2018-03-27T10:40:27.910Z,22.58
2018-03-27T10:41:27.945Z,22.62
2018-03-27T10:42:27.862Z,22.65
2018-03-27T10:43:27.827Z,22.67
2018-03-27T10:44:27.801Z,22.64
2018-03-27T10:45:27.856Z,22.61
2018-03-27T10:46:27.757Z,22.67
2018-03-27T10:47:27.758Z,22.64
2018-03-27T10:48:27.717Z,22.65
2018-03-27T10:49:27.672Z,22.65
2018-03-27T10:50:27.651Z,22.60
2018-03-27T10:51:27.620Z,22.60
2018-03-27T10:52:27.601Z,22.64
2018-03-27T10:53:27.576Z,22.76
2018-03-27T10:54:27.589Z,22.58
2018-03-27T10:55:27.518Z,22.60
2018-03-27T10:56:27.513Z,22.58
2018-03-27T10:57:27.465Z,22.68
2018-03-27T10:58:27.474Z,22.62
2018-03-27T10:59:27.433Z,22.57
2018-03-27T11:00:27.391Z,22.52
2018-03-27T11:01:27.369Z,22.43
2018-03-27T11:02:30.230Z,22.37
2018-03-27T11:03:27.320Z,22.40
2018-03-27T11:04:27.301Z,22.21
2018-03-27T11:05:27.275Z,22.20
2018-03-27T11:06:27.251Z,22.07
2018-03-27T11:07:27.282Z,22.12
2018-03-27T11:08:27.186Z,21.96
2018-03-27T11:09:27.161Z,21.88
2018-03-27T11:10:27.146Z,21.86
2018-03-27T11:11:27.104Z,21.80
2018-03-27T11:12:27.111Z,21.72
2018-03-27T11:13:27.051Z,21.69
2018-03-27T11:14:27.026Z,21.69
2018-03-27T11:15:27.007Z,21.79
2018-03-27T11:16:26.975Z,21.71
2018-03-27T11:17:26.977Z,21.68
2018-03-27T11:18:26.954Z,21.67
2018-03-27T11:19:26.893Z,21.64
2018-03-27T11:20:26.869Z,21.61
2018-03-27T11:21:26.841Z,21.59
2018-03-27T11:22:26.827Z,21.59
2018-03-27T11:23:26.794Z,21.59
2018-03-27T11:24:26.767Z,21.59
2018-03-27T11:25:26.740Z,21.59
2018-03-27T11:26:26.717Z,21.62
2018-03-27T11:27:26.689Z,21.64
2018-03-27T11:28:26.655Z,21.61
2018-03-27T11:29:26.722Z,21.59
2018-03-27T11:30:26.813Z,21.65
2018-03-27T11:31:26.589Z,21.62
2018-03-27T11:32:26.582Z,21.61
2018-03-27T11:33:26.525Z,21.61
2018-03-27T11:34:26.517Z,21.59
2018-03-27T11:35:26.485Z,21.67
2018-03-27T11:36:26.465Z,21.68
2018-03-27T11:37:26.429Z,21.72
2018-03-27T11:38:26.425Z,21.62
2018-03-27T11:39:26.384Z,21.72
2018-03-27T11:40:26.382Z,21.68
2018-03-27T11:41:26.334Z,21.67
2018-03-27T11:42:26.313Z,21.67
2018-03-27T11:43:26.263Z,21.68
2018-03-27T11:44:27.772Z,21.67
2018-03-27T11:45:26.241Z,21.62
2018-03-27T11:46:26.205Z,21.64
2018-03-27T11:47:26.164Z,21.61
2018-03-27T11:48:26.139Z,21.62
2018-03-27T11:49:26.127Z,21.64
2018-03-27T11:50:26.753Z,21.54
2018-03-27T11:51:26.165Z,21.58
2018-03-27T11:52:26.050Z,21.61
2018-03-27T11:53:26.106Z,21.74
2018-03-27T11:54:25.993Z,21.72
2018-03-27T11:55:25.970Z,21.68
2018-03-27T11:56:25.953Z,21.74
2018-03-27T11:57:25.902Z,21.72
2018-03-27T11:58:25.908Z,21.72
2018-03-27T11:59:25.886Z,21.71
2018-03-27T12:00:25.886Z,21.83
2018-03-27T12:01:25.854Z,21.69
2018-03-27T12:02:25.881Z,21.83
2018-03-27T12:03:25.741Z,21.83
2018-03-27T12:04:25.727Z,21.83
2018-03-27T12:05:25.736Z,21.90
2018-03-27T12:06:25.739Z,21.88
2018-03-27T12:07:26.098Z,21.86
2018-03-27T12:08:25.597Z,21.84
2018-03-27T12:09:25.617Z,21.96
2018-03-27T12:10:25.555Z,22.00
2018-03-27T12:11:25.528Z,22.02
2018-03-27T12:12:25.486Z,22.05
2018-03-27T12:13:25.494Z,22.02
2018-03-27T12:14:25.507Z,22.07
2018-03-27T12:15:25.436Z,22.14
2018-03-27T12:16:25.384Z,22.18
2018-03-27T12:17:25.370Z,22.25
2018-03-27T12:18:25.346Z,22.28
2018-03-27T12:19:25.306Z,22.39
2018-03-27T12:20:25.291Z,22.30
2018-03-27T12:21:27.764Z,22.33
2018-03-27T12:22:25.251Z,22.43
2018-03-27T12:23:25.204Z,22.40
2018-03-27T12:24:25.330Z,22.49
2018-03-27T12:25:25.183Z,22.62
2018-03-27T12:26:25.200Z,22.58
2018-03-27T12:27:25.128Z,22.58
2018-03-27T12:28:25.068Z,22.67
2018-03-27T12:29:25.050Z,22.77
2018-03-27T12:30:25.023Z,22.76
2018-03-27T12:31:25.001Z,22.80
2018-03-27T12:32:24.970Z,22.80
2018-03-27T12:33:24.950Z,22.88
2018-03-27T12:34:24.914Z,22.94
2018-03-27T12:35:27.768Z,22.88
2018-03-27T12:36:24.869Z,23.01
2018-03-27T12:37:24.845Z,23.05
2018-03-27T12:38:24.826Z,23.05
2018-03-27T12:39:24.796Z,23.12
2018-03-27T12:40:24.766Z,23.17
2018-03-27T12:41:24.750Z,23.15
2018-03-27T12:42:24.725Z,23.28
2018-03-27T12:43:24.692Z,23.19
2018-03-27T12:44:24.667Z,23.31
2018-03-27T12:45:24.644Z,23.40
2018-03-27T12:46:24.620Z,23.43
2018-03-27T12:47:24.596Z,23.42
2018-03-27T12:48:24.570Z,23.54
2018-03-27T12:49:24.541Z,23.47
2018-03-27T12:50:24.553Z,23.53
2018-03-27T12:51:24.492Z,23.53
2018-03-27T12:52:24.466Z,23.55
2018-03-27T12:53:24.434Z,23.60